createdAt,value
2023-05-11T00:00:53.832Z,10.83
2023-05-11T00:03:25.849Z,10.81
2023-05-11T00:05:56.751Z,10.84
2023-05-11T00:08:23.960Z,10.86
2023-05-11T00:10:53.828Z,10.95
2023-05-11T00:13:21.112Z,10.86
2023-05-11T00:15:48.315Z,10.80
2023-05-11T00:18:15.614Z,10.79
2023-05-11T00:20:43.207Z,10.73
2023-05-11T00:23:13.193Z,10.70
2023-05-11T00:25:42.282Z,10.64
2023-05-11T00:28:13.225Z,10.57
2023-05-11T00:30:41.412Z,10.54
2023-05-11T00:33:14.744Z,10.40
2023-05-11T00:35:42.972Z,10.34
2023-05-11T00:38:10.162Z,10.25
2023-05-11T00:40:43.321Z,10.23
2023-05-11T00:43:10.461Z,10.16
2023-05-11T00:45:42.976Z,10.17
2023-05-11T00:48:10.326Z,10.17
2023-05-11T00:50:40.494Z,10.23
2023-05-11T00:53:07.640Z,10.33
2023-05-11T00:55:34.957Z,10.41
2023-05-11T00:58:06.442Z,10.45
2023-05-11T01:00:33.976Z,10.31
2023-05-11T01:03:03.898Z,10.25
2023-05-11T01:06:07.691Z,10.34
2023-05-11T01:08:59.620Z,10.33
2023-05-11T01:11:49.364Z,10.30
2023-05-11T01:14:29.337Z,10.24
2023-05-11T01:17:10.488Z,10.28
2023-05-11T01:20:05.992Z,10.18
2023-05-11T01:23:10.632Z,10.21
2023-05-11T01:26:10.332Z,10.12
2023-05-11T01:29:13.769Z,9.97
2023-05-11T01:31:49.381Z,9.94
2023-05-11T01:34:29.955Z,9.88
2023-05-11T01:37:21.369Z,9.84
2023-05-11T01:40:04.922Z,9.88
2023-05-11T01:42:59.197Z,9.82
2023-05-11T01:45:38.551Z,9.94
2023-05-11T01:48:17.165Z,9.87
2023-05-11T01:50:49.767Z,9.88
2023-05-11T01:53:18.409Z,9.88
2023-05-11T01:55:48.603Z,9.95
2023-05-11T01:58:20.861Z,9.92
2023-05-11T02:00:51.891Z,9.99
2023-05-11T02:03:22.133Z,9.98
2023-05-11T02:05:57.692Z,9.96
2023-05-11T02:08:32.542Z,9.96
2023-05-11T02:11:03.011Z,9.88
2023-05-11T02:13:33.373Z,9.87
2023-05-11T02:16:04.480Z,9.89
2023-05-11T02:18:33.582Z,9.88
2023-05-11T02:21:07.544Z,9.88
2023-05-11T02:23:39.285Z,9.92
2023-05-11T02:26:10.708Z,9.82
2023-05-11T02:28:39.320Z,9.93
2023-05-11T02:31:12.953Z,9.97
2023-05-11T02:33:47.987Z,10.13
2023-05-11T02:36:24.214Z,10.23
2023-05-11T02:39:04.837Z,10.21
2023-05-11T02:41:33.692Z,10.18
2023-05-11T02:44:06.454Z,10.09
2023-05-11T02:46:40.722Z,9.97
2023-05-11T02:49:12.683Z,9.91
2023-05-11T02:51:43.179Z,9.81
2023-05-11T02:54:12.420Z,9.80
2023-05-11T02:56:45.698Z,9.79
2023-05-11T02:59:14.564Z,9.84
2023-05-11T03:01:46.699Z,9.82
2023-05-11T03:04:17.051Z,9.86
2023-05-11T03:06:47.358Z,9.80
2023-05-11T03:09:15.201Z,9.76
2023-05-11T03:11:50.233Z,9.73
2023-05-11T03:14:23.164Z,9.68
2023-05-11T03:16:55.594Z,9.66
2023-05-11T03:19:26.692Z,9.70
2023-05-11T03:21:54.998Z,9.69
2023-05-11T03:24:37.542Z,9.66
2023-05-11T03:27:08.366Z,9.63
2023-05-11T03:29:38.752Z,9.62
2023-05-11T03:32:06.659Z,9.68
2023-05-11T03:34:42.368Z,9.82
2023-05-11T03:37:14.468Z,9.92
2023-05-11T03:39:45.896Z,10.01
2023-05-11T03:42:21.439Z,10.12
2023-05-11T03:44:58.846Z,10.21
2023-05-11T03:47:31.473Z,10.28
2023-05-11T03:50:01.470Z,10.38
2023-05-11T03:52:33.218Z,10.41
2023-05-11T03:55:10.033Z,10.48
2023-05-11T03:57:37.324Z,10.54
2023-05-11T04:00:11.341Z,10.67
2023-05-11T04:02:48.412Z,10.73
2023-05-11T04:05:15.894Z,10.69
2023-05-11T04:07:46.358Z,10.66
2023-05-11T04:10:13.495Z,10.66
2023-05-11T04:12:40.659Z,10.66
2023-05-11T04:15:11.319Z,10.50
2023-05-11T04:17:41.681Z,10.51
2023-05-11T04:20:09.176Z,10.40
2023-05-11T04:22:36.749Z,10.30
2023-05-11T04:25:04.557Z,10.33
2023-05-11T04:27:35.234Z,10.37
2023-05-11T04:30:11.438Z,10.40
2023-05-11T04:32:38.677Z,10.41
2023-05-11T04:35:06.025Z,10.62
2023-05-11T04:37:39.545Z,10.63
2023-05-11T04:40:09.352Z,10.71
2023-05-11T04:42:40.723Z,10.99
2023-05-11T04:45:14.990Z,11.00
2023-05-11T04:47:45.999Z,11.25
2023-05-11T04:50:13.527Z,11.42
2023-05-11T04:52:40.768Z,11.76
2023-05-11T04:55:08.543Z,12.71
2023-05-11T04:57:35.830Z,13.23
2023-05-11T05:00:09.234Z,13.96
2023-05-11T05:02:38.220Z,14.27
2023-05-11T05:05:11.810Z,14.46
2023-05-11T05:07:39.290Z,15.11
2023-05-11T05:10:09.164Z,15.34
2023-05-11T05:12:37.186Z,15.42
2023-05-11T05:15:05.688Z,15.37
2023-05-11T05:17:33.910Z,14.85
2023-05-11T05:20:01.406Z,14.49
2023-05-11T05:22:28.726Z,14.28
2023-05-11T05:24:56.763Z,13.78
2023-05-11T05:27:23.934Z,13.53
2023-05-11T05:29:53.287Z,13.33
2023-05-11T05:32:21.699Z,13.26
2023-05-11T05:34:49.544Z,13.11
2023-05-11T05:37:17.102Z,13.32
2023-05-11T05:39:45.884Z,13.99
2023-05-11T05:42:14.954Z,13.97
2023-05-11T05:44:42.573Z,13.92
2023-05-11T05:47:10.083Z,13.95
2023-05-11T05:49:40.569Z,14.00
2023-05-11T05:52:10.217Z,13.80
2023-05-11T05:54:38.811Z,13.79
2023-05-11T05:57:07.194Z,13.74
2023-05-11T05:59:34.538Z,13.94
2023-05-11T06:02:02.125Z,14.09
2023-05-11T06:04:30.516Z,14.93
2023-05-11T06:06:58.633Z,15.29
2023-05-11T06:09:26.470Z,15.49
2023-05-11T06:11:54.233Z,15.47
2023-05-11T06:14:23.588Z,15.36
2023-05-11T06:16:51.233Z,15.48
2023-05-11T06:19:18.425Z,15.77
2023-05-11T06:21:48.993Z,16.18
2023-05-11T06:24:16.819Z,16.26
2023-05-11T06:26:45.623Z,16.53
2023-05-11T06:29:14.438Z,16.94
2023-05-11T06:31:42.102Z,16.71
2023-05-11T06:34:09.906Z,16.90
2023-05-11T06:36:37.561Z,16.86
2023-05-11T06:39:06.951Z,16.92
2023-05-11T06:41:34.872Z,16.94
2023-05-11T06:44:02.172Z,16.97
2023-05-11T06:46:36.879Z,17.01
2023-05-11T06:49:04.817Z,16.78
2023-05-11T06:51:32.247Z,16.62
2023-05-11T06:53:59.752Z,16.62
2023-05-11T06:56:27.879Z,16.90
2023-05-11T06:58:55.276Z,16.96
2023-05-11T07:01:23.119Z,17.24
2023-05-11T07:03:52.590Z,17.32
2023-05-11T07:06:22.061Z,17.09
2023-05-11T07:08:49.180Z,17.23
2023-05-11T07:11:16.620Z,17.53
2023-05-11T07:13:45.369Z,17.78
2023-05-11T07:16:13.106Z,17.70
2023-05-11T07:18:40.567Z,17.77
2023-05-11T07:21:07.838Z,18.06
2023-05-11T07:23:35.095Z,18.11
2023-05-11T07:26:27.130Z,18.01
2023-05-11T07:28:54.642Z,17.74
2023-05-11T07:31:22.083Z,17.92
2023-05-11T07:33:49.666Z,18.26
2023-05-11T07:36:16.941Z,18.18
2023-05-11T07:38:44.121Z,18.14
2023-05-11T07:41:12.596Z,18.28
2023-05-11T07:43:40.412Z,18.74
2023-05-11T07:46:10.288Z,19.37
2023-05-11T07:48:37.458Z,19.21
2023-05-11T07:51:05.832Z,19.07
2023-05-11T07:53:33.344Z,18.92
2023-05-11T07:56:00.948Z,18.76
2023-05-11T07:58:29.566Z,18.41
2023-05-11T08:00:57.503Z,18.45
2023-05-11T08:03:24.863Z,18.31
2023-05-11T08:05:55.936Z,18.39
2023-05-11T08:08:31.529Z,18.47
2023-05-11T08:11:01.892Z,18.83
2023-05-11T08:13:29.061Z,19.07
2023-05-11T08:15:56.453Z,19.25
2023-05-11T08:18:23.919Z,19.00
2023-05-11T08:20:51.592Z,18.84
2023-05-11T08:23:21.881Z,18.74
2023-05-11T08:25:53.973Z,18.81
2023-05-11T08:28:23.792Z,18.67
2023-05-11T08:30:59.014Z,18.74
2023-05-11T08:33:37.395Z,18.87
2023-05-11T08:36:09.708Z,18.74
2023-05-11T08:38:37.338Z,18.60
2023-05-11T08:41:05.191Z,19.03
2023-05-11T08:43:34.500Z,19.15
2023-05-11T08:46:04.793Z,19.49
2023-05-11T08:48:34.138Z,19.51
2023-05-11T08:51:04.897Z,19.57
2023-05-11T08:53:32.848Z,20.00
2023-05-11T08:56:06.046Z,20.00
2023-05-11T08:58:36.286Z,20.14
2023-05-11T09:01:05.597Z,20.52
2023-05-11T09:03:36.881Z,21.15
2023-05-11T09:06:09.660Z,20.90
2023-05-11T09:08:38.197Z,20.49
2023-05-11T09:11:06.518Z,20.46
2023-05-11T09:13:34.242Z,20.73
2023-05-11T09:16:03.432Z,20.65
2023-05-11T09:18:31.056Z,20.72
2023-05-11T09:21:00.317Z,20.44
2023-05-11T09:23:27.790Z,20.48
2023-05-11T09:25:54.900Z,20.72
2023-05-11T09:28:26.115Z,20.91
2023-05-11T09:30:53.866Z,21.50
2023-05-11T09:33:22.875Z,21.42
2023-05-11T09:35:50.373Z,21.40
2023-05-11T09:38:21.037Z,21.63
2023-05-11T09:40:56.376Z,21.23
2023-05-11T09:43:24.971Z,21.37
2023-05-11T09:46:00.235Z,21.30
2023-05-11T09:48:32.740Z,21.40
2023-05-11T09:51:09.483Z,21.79
2023-05-11T09:53:46.269Z,22.46
2023-05-11T09:56:15.776Z,22.78
2023-05-11T09:58:57.551Z,22.59
2023-05-11T10:01:33.182Z,21.80
2023-05-11T10:04:13.943Z,21.74
2023-05-11T10:06:55.361Z,21.69
2023-05-11T10:09:25.914Z,21.89
2023-05-11T10:11:53.850Z,22.48
2023-05-11T10:14:28.117Z,22.56
2023-05-11T10:16:58.096Z,22.18
2023-05-11T10:19:25.895Z,22.97
2023-05-11T10:21:57.352Z,22.79
2023-05-11T10:24:25.359Z,22.02
2023-05-11T10:26:53.862Z,21.40
2023-05-11T10:29:24.971Z,20.73
2023-05-11T10:31:53.521Z,20.07
2023-05-11T10:34:23.375Z,19.56
2023-05-11T10:36:52.842Z,20.66
2023-05-11T10:39:20.851Z,21.53
2023-05-11T10:42:20.548Z,22.56
2023-05-11T10:45:02.704Z,22.97
2023-05-11T10:47:33.355Z,23.32
2023-05-11T10:50:14.527Z,23.30
2023-05-11T10:53:00.682Z,22.18
2023-05-11T10:55:47.095Z,21.75
2023-05-11T10:58:22.949Z,20.87
2023-05-11T11:01:24.383Z,20.47
2023-05-11T11:04:05.670Z,19.81
2023-05-11T11:06:34.967Z,19.63
2023-05-11T11:09:06.221Z,19.48
2023-05-11T11:11:33.665Z,19.59
2023-05-11T11:14:03.862Z,20.19
2023-05-11T11:16:35.303Z,20.80
2023-05-11T11:19:30.788Z,20.79
2023-05-11T11:22:02.439Z,20.53
2023-05-11T11:24:38.716Z,21.01
2023-05-11T11:27:14.677Z,20.60
2023-05-11T11:30:02.434Z,20.71
2023-05-11T11:32:29.788Z,21.98
2023-05-11T11:34:57.048Z,22.28
2023-05-11T11:37:24.471Z,21.85
2023-05-11T11:39:53.813Z,21.93
2023-05-11T11:42:34.808Z,22.16
2023-05-11T11:45:28.506Z,22.84
2023-05-11T11:48:09.935Z,22.96
2023-05-11T11:50:37.415Z,22.81
2023-05-11T11:53:11.068Z,22.92
2023-05-11T11:55:51.813Z,23.25
2023-05-11T11:58:45.307Z,23.24
2023-05-11T12:01:23.369Z,22.73
2023-05-11T12:03:59.195Z,22.90
2023-05-11T12:06:33.611Z,23.34
2023-05-11T12:09:01.701Z,22.88
2023-05-11T12:11:29.811Z,21.69
2023-05-11T12:14:03.280Z,20.95
2023-05-11T12:16:35.342Z,20.33
2023-05-11T12:19:04.404Z,20.17
2023-05-11T12:21:32.783Z,19.71
2023-05-11T12:24:04.447Z,19.70
2023-05-11T12:26:33.139Z,19.69
2023-05-11T12:29:11.643Z,19.79
2023-05-11T12:31:43.283Z,20.12
2023-05-11T12:34:18.864Z,20.14
2023-05-11T12:36:48.254Z,20.13
2023-05-11T12:39:22.483Z,20.18
2023-05-11T12:41:52.468Z,20.15
2023-05-11T12:44:21.802Z,20.09
2023-05-11T12:46:50.205Z,19.40
2023-05-11T12:52:08.024Z,19.18
2023-05-11T12:54:40.284Z,19.11
2023-05-11T12:57:28.978Z,19.17
2023-05-11T13:00:13.101Z,18.99
2023-05-11T13:03:01.498Z,19.03
2023-05-11T13:05:29.851Z,18.79
2023-05-11T13:08:01.528Z,18.93
2023-05-11T13:10:37.919Z,18.81
2023-05-11T13:13:06.093Z,18.86
2023-05-11T13:15:33.942Z,18.73
2023-05-11T13:18:03.431Z,18.76
2023-05-11T13:20:34.453Z,18.72
2023-05-11T13:23:06.959Z,18.77
2023-05-11T13:25:56.489Z,18.88
2023-05-11T13:28:26.964Z,19.09
2023-05-11T13:31:03.841Z,19.25
2023-05-11T13:33:32.291Z,19.43
2023-05-11T13:36:04.481Z,19.55
2023-05-11T13:38:31.784Z,19.75
2023-05-11T13:40:59.524Z,19.91
2023-05-11T13:43:27.394Z,19.64
2023-05-11T13:45:57.700Z,19.64
2023-05-11T13:48:30.844Z,19.86
2023-05-11T13:51:01.147Z,20.24
2023-05-11T13:53:33.624Z,20.36
2023-05-11T13:56:01.787Z,20.81
2023-05-11T13:58:28.892Z,20.79
2023-05-11T14:01:07.276Z,20.66
2023-05-11T14:03:39.005Z,20.40
2023-05-11T14:06:06.391Z,20.24
2023-05-11T14:08:33.601Z,20.29
2023-05-11T14:11:13.834Z,20.47
2023-05-11T14:13:41.409Z,20.91
2023-05-11T14:16:10.193Z,20.68
2023-05-11T14:18:40.863Z,20.48
2023-05-11T14:21:09.335Z,20.15
2023-05-11T14:23:39.042Z,20.24
2023-05-11T14:26:07.836Z,20.28
2023-05-11T14:28:35.353Z,20.39
2023-05-11T14:31:02.627Z,21.06
2023-05-11T14:33:29.875Z,20.89
2023-05-11T14:35:57.274Z,20.41
2023-05-11T14:38:24.584Z,20.07
2023-05-11T14:40:52.542Z,19.83
2023-05-11T14:43:22.077Z,19.98
2023-05-11T14:45:49.308Z,20.19
2023-05-11T14:48:16.539Z,20.18
2023-05-11T14:50:44.089Z,20.01
2023-05-11T14:53:12.191Z,19.96
2023-05-11T14:55:41.337Z,19.85
2023-05-11T14:58:09.302Z,19.88
2023-05-11T15:00:40.268Z,19.86
2023-05-11T15:03:10.977Z,19.64
2023-05-11T15:05:38.639Z,19.38
2023-05-11T15:08:15.327Z,19.80
2023-05-11T15:10:49.653Z,19.88
2023-05-11T15:13:16.758Z,19.55
2023-05-11T15:15:43.891Z,19.51
2023-05-11T15:18:14.171Z,19.48
2023-05-11T15:20:45.232Z,19.32
2023-05-11T15:23:17.088Z,19.24
2023-05-11T15:25:45.494Z,19.52
2023-05-11T15:28:12.922Z,19.80
2023-05-11T15:30:41.776Z,19.76
2023-05-11T15:33:10.426Z,19.51
2023-05-11T15:35:38.201Z,19.28
2023-05-11T15:38:06.223Z,19.20
2023-05-11T15:40:33.827Z,19.37
2023-05-11T15:43:04.030Z,19.64
2023-05-11T15:45:32.492Z,19.54
2023-05-11T15:48:00.322Z,20.00
2023-05-11T15:50:27.810Z,20.07
2023-05-11T15:52:57.764Z,19.75
2023-05-11T15:55:25.570Z,20.00
2023-05-11T15:57:52.657Z,19.76
2023-05-11T16:00:20.380Z,19.55
2023-05-11T16:03:00.003Z,19.31
2023-05-11T16:05:28.931Z,19.49
2023-05-11T16:07:56.198Z,19.61
2023-05-11T16:10:23.537Z,19.79
2023-05-11T16:12:53.693Z,19.78
2023-05-11T16:15:25.233Z,19.38
2023-05-11T16:17:52.672Z,19.38
2023-05-11T16:20:20.121Z,19.63
2023-05-11T16:22:48.095Z,19.74
2023-05-11T16:29:28.007Z,19.73
2023-05-11T16:31:56.873Z,19.52
2023-05-11T16:34:24.383Z,19.59
2023-05-11T16:36:58.789Z,19.39
2023-05-11T16:39:27.335Z,19.34
2023-05-11T16:41:54.586Z,19.10
2023-05-11T16:44:22.631Z,18.89
2023-05-11T16:46:51.122Z,18.70
2023-05-11T16:49:20.872Z,18.55
2023-05-11T16:51:48.279Z,18.60
2023-05-11T16:54:24.173Z,18.61
2023-05-11T16:56:51.460Z,18.56
2023-05-11T16:59:18.896Z,18.61
2023-05-11T17:01:46.354Z,18.63
2023-05-11T17:04:15.014Z,18.65
2023-05-11T17:06:45.102Z,18.66
2023-05-11T17:09:12.315Z,18.63
2023-05-11T17:11:41.922Z,18.41
2023-05-11T17:14:09.301Z,18.28
2023-05-11T17:16:36.587Z,18.24
2023-05-11T17:19:04.423Z,18.26
2023-05-11T17:21:32.449Z,18.20
2023-05-11T17:23:59.667Z,18.27
2023-05-11T17:26:35.469Z,18.19
2023-05-11T17:29:10.991Z,18.20
2023-05-11T17:31:39.565Z,18.22
2023-05-11T17:34:08.698Z,18.02
2023-05-11T17:36:36.180Z,17.92
2023-05-11T17:39:03.654Z,17.95
2023-05-11T17:41:30.987Z,17.81
2023-05-11T17:43:58.835Z,17.82
2023-05-11T17:46:27.368Z,17.69
2023-05-11T17:48:54.623Z,17.76
2023-05-11T17:51:22.154Z,17.72
2023-05-11T17:53:50.009Z,17.60
2023-05-11T17:56:17.058Z,17.55
2023-05-11T17:58:48.118Z,17.41
2023-05-11T18:01:15.348Z,17.46
2023-05-11T18:03:44.881Z,17.29
2023-05-11T18:06:13.606Z,17.22
2023-05-11T18:08:40.896Z,17.13
2023-05-11T18:11:12.813Z,17.10
2023-05-11T18:13:40.044Z,17.13
2023-05-11T18:16:07.488Z,17.20
2023-05-11T18:18:36.771Z,17.05
2023-05-11T18:21:08.761Z,17.01
2023-05-11T18:23:35.821Z,17.03
2023-05-11T18:26:03.558Z,17.01
2023-05-11T18:28:31.165Z,16.92
2023-05-11T18:30:58.323Z,16.90
2023-05-11T18:33:25.733Z,16.95
2023-05-11T18:35:53.004Z,16.97
2023-05-11T18:38:20.266Z,16.78
2023-05-11T18:40:47.857Z,16.80
2023-05-11T18:43:18.919Z,16.68
2023-05-11T18:45:46.524Z,16.60
2023-05-11T18:48:14.636Z,16.64
2023-05-11T18:50:42.210Z,16.60
2023-05-11T18:53:12.152Z,16.60
2023-05-11T18:55:49.389Z,16.51
2023-05-11T18:58:20.770Z,16.54
2023-05-11T19:00:51.541Z,16.45
2023-05-11T19:03:23.320Z,16.45
2023-05-11T19:05:53.515Z,16.39
2023-05-11T19:08:20.618Z,16.42
2023-05-11T19:10:49.338Z,16.45
2023-05-11T19:13:19.128Z,16.47
2023-05-11T19:15:46.242Z,16.35
2023-05-11T19:18:13.612Z,16.36
2023-05-11T19:20:40.858Z,16.28
2023-05-11T19:23:08.064Z,16.20
2023-05-11T19:25:38.308Z,16.27
2023-05-11T19:28:05.551Z,16.25
2023-05-11T19:30:36.820Z,16.33
2023-05-11T19:33:06.558Z,16.36
2023-05-11T19:35:33.735Z,16.35
2023-05-11T19:38:03.771Z,16.22
2023-05-11T19:43:12.173Z,16.20
2023-05-11T19:45:53.446Z,16.14
2023-05-11T19:48:20.561Z,16.19
2023-05-11T19:50:50.134Z,16.22
2023-05-11T19:53:17.195Z,16.17
2023-05-11T19:55:46.037Z,16.20
2023-05-11T19:58:14.948Z,16.20
2023-05-11T20:00:42.497Z,16.17
2023-05-11T20:03:12.350Z,16.18
2023-05-11T20:05:39.763Z,16.07
2023-05-11T20:08:06.908Z,16.03
2023-05-11T20:10:37.836Z,16.03
2023-05-11T20:13:10.654Z,15.78
2023-05-11T20:15:37.837Z,15.65
2023-05-11T20:18:05.146Z,15.69
2023-05-11T20:20:32.746Z,15.86
2023-05-11T20:23:03.474Z,15.81
2023-05-11T20:25:31.407Z,15.76
2023-05-11T20:27:58.537Z,15.88
2023-05-11T20:30:25.649Z,15.86
2023-05-11T20:35:29.677Z,15.85
2023-05-11T20:37:58.673Z,15.84
2023-05-11T20:40:25.798Z,15.68
2023-05-11T20:42:58.507Z,15.64
2023-05-11T20:45:27.970Z,15.48
2023-05-11T20:47:55.232Z,15.36
2023-05-11T20:50:23.453Z,15.39
2023-05-11T20:52:56.612Z,15.37
2023-05-11T20:55:23.952Z,15.42
2023-05-11T20:57:53.364Z,15.57
2023-05-11T21:00:20.776Z,15.68
2023-05-11T21:02:48.117Z,15.79
2023-05-11T21:05:18.193Z,15.74
2023-05-11T21:07:50.889Z,15.73
2023-05-11T21:10:26.060Z,15.90
2023-05-11T21:12:58.101Z,15.96
2023-05-11T21:15:36.315Z,15.93
2023-05-11T21:18:04.390Z,15.88
2023-05-11T21:20:34.070Z,15.92
2023-05-11T21:23:07.336Z,15.88
2023-05-11T21:25:39.163Z,15.84
2023-05-11T21:28:09.101Z,15.87
2023-05-11T21:30:36.444Z,15.82
2023-05-11T21:33:09.914Z,15.80
2023-05-11T21:35:40.023Z,15.61
2023-05-11T21:38:08.148Z,15.41
2023-05-11T21:40:38.592Z,15.27
2023-05-11T21:43:08.236Z,15.18
2023-05-11T21:45:39.729Z,15.09
2023-05-11T21:48:07.168Z,15.02
2023-05-11T21:50:41.156Z,14.92
2023-05-11T21:53:10.453Z,14.93
2023-05-11T21:55:43.364Z,14.91
2023-05-11T21:58:16.126Z,14.91
2023-05-11T22:00:43.384Z,14.77
2023-05-11T22:03:10.584Z,14.75
2023-05-11T22:05:37.795Z,14.76
2023-05-11T22:08:14.251Z,14.71
2023-05-11T22:10:46.201Z,14.67
2023-05-11T22:13:13.280Z,14.57
2023-05-11T22:15:41.139Z,14.46
2023-05-11T22:18:19.027Z,14.34
2023-05-11T22:20:49.000Z,14.35
2023-05-11T22:23:16.287Z,14.36
2023-05-11T22:25:43.493Z,14.47
2023-05-11T22:28:16.107Z,14.46
2023-05-11T22:30:43.462Z,14.37
2023-05-11T22:33:10.678Z,14.48
2023-05-11T22:35:41.191Z,14.36
2023-05-11T22:38:16.154Z,14.25
2023-05-11T22:40:44.255Z,14.15
2023-05-11T22:43:13.064Z,14.31
2023-05-11T22:45:45.890Z,14.25
2023-05-11T22:48:15.149Z,14.22
2023-05-11T22:50:49.082Z,14.12
2023-05-11T22:53:16.979Z,14.02
2023-05-11T22:55:44.241Z,14.00
2023-05-11T22:58:11.314Z,14.10
2023-05-11T23:03:21.527Z,14.10
2023-05-11T23:05:51.277Z,14.13
2023-05-11T23:08:26.326Z,13.99
2023-05-11T23:10:54.231Z,13.95
2023-05-11T23:13:21.439Z,13.94
2023-05-11T23:15:49.360Z,13.87
2023-05-11T23:18:19.710Z,13.80
2023-05-11T23:20:47.386Z,13.75
2023-05-11T23:23:16.823Z,13.78
2023-05-11T23:25:49.542Z,13.77
2023-05-11T23:28:18.974Z,13.77
2023-05-11T23:30:49.071Z,13.88
2023-05-11T23:33:24.908Z,13.71
2023-05-11T23:35:56.425Z,13.63
2023-05-11T23:38:29.719Z,13.49
2023-05-11T23:41:01.406Z,13.42
2023-05-11T23:43:37.244Z,13.36
2023-05-11T23:46:05.897Z,13.47
2023-05-11T23:48:32.997Z,13.55
2023-05-11T23:51:02.886Z,13.41
2023-05-11T23:53:33.345Z,13.35
2023-05-11T23:56:01.565Z,13.40
2023-05-11T23:58:28.619Z,13.48
